sensor_id;sensor_type;location;lat;lon;timestamp;pressure;altitude;pressure_sealevel;temperature;humidity
48364;BME280;34170;54.364;18.582;2024-02-04T00:00:51;99445.28;;;5.98;95.40
48364;BME280;34170;54.364;18.582;2024-02-04T00:03:39;99440.13;;;6.16;94.80
48364;BME280;34170;54.364;18.582;2024-02-04T00:06:06;99422.66;;;6.02;94.89
48364;BME280;34170;54.364;18.582;2024-02-04T00:08:34;99445.06;;;6.21;94.19
48364;BME280;34170;54.364;18.582;2024-02-04T00:11:02;99437.75;;;6.23;94.45
48364;BME280;34170;54.364;18.582;2024-02-04T00:13:31;99426.78;;;6.26;93.93
48364;BME280;34170;54.364;18.582;2024-02-04T00:15:59;99410.19;;;6.13;93.67
48364;BME280;34170;54.364;18.582;2024-02-04T00:18:27;99431.94;;;6.08;94.61
48364;BME280;34170;54.364;18.582;2024-02-04T00:20:54;99440.00;;;6.27;94.19
48364;BME280;34170;54.364;18.582;2024-02-04T00:23:22;99426.22;;;6.42;93.46
48364;BME280;34170;54.364;18.582;2024-02-04T00:25:50;99419.50;;;6.28;92.25
48364;BME280;34170;54.364;18.582;2024-02-04T00:28:17;99422.59;;;6.43;92.24
48364;BME280;34170;54.364;18.582;2024-02-04T00:30:46;99413.59;;;6.34;92.44
48364;BME280;34170;54.364;18.582;2024-02-04T00:33:14;99408.09;;;6.36;91.64
48364;BME280;34170;54.364;18.582;2024-02-04T00:35:42;99381.53;;;6.15;92.75
48364;BME280;34170;54.364;18.582;2024-02-04T00:38:09;99409.06;;;5.96;93.45
48364;BME280;34170;54.364;18.582;2024-02-04T00:40:37;99393.75;;;5.98;92.48
48364;BME280;34170;54.364;18.582;2024-02-04T00:43:05;99398.38;;;6.05;92.43
48364;BME280;34170;54.364;18.582;2024-02-04T00:45:33;99385.72;;;6.07;91.79
48364;BME280;34170;54.364;18.582;2024-02-04T00:48:00;99401.50;;;6.30;91.07
48364;BME280;34170;54.364;18.582;2024-02-04T00:50:28;99395.25;;;5.90;92.39
48364;BME280;34170;54.364;18.582;2024-02-04T00:52:55;99410.72;;;5.97;92.76
48364;BME280;34170;54.364;18.582;2024-02-04T00:55:23;99415.94;;;6.08;92.47
48364;BME280;34170;54.364;18.582;2024-02-04T00:57:50;99420.44;;;5.98;92.92
48364;BME280;34170;54.364;18.582;2024-02-04T01:00:18;99402.44;;;6.00;92.23
48364;BME280;34170;54.364;18.582;2024-02-04T01:02:46;99405.13;;;6.00;92.29
48364;BME280;34170;54.364;18.582;2024-02-04T01:05:13;99406.72;;;5.81;92.33
48364;BME280;34170;54.364;18.582;2024-02-04T01:07:42;99405.38;;;5.97;92.48
48364;BME280;34170;54.364;18.582;2024-02-04T01:10:10;99430.97;;;5.99;92.85
48364;BME280;34170;54.364;18.582;2024-02-04T01:12:38;99408.09;;;6.16;91.20
48364;BME280;34170;54.364;18.582;2024-02-04T01:15:06;99400.66;;;6.10;91.41
48364;BME280;34170;54.364;18.582;2024-02-04T01:17:33;99415.78;;;6.09;92.67
48364;BME280;34170;54.364;18.582;2024-02-04T01:20:01;99426.03;;;6.04;92.63
48364;BME280;34170;54.364;18.582;2024-02-04T01:22:29;99398.25;;;6.17;92.12
48364;BME280;34170;54.364;18.582;2024-02-04T01:24:57;99423.13;;;6.27;91.14
48364;BME280;34170;54.364;18.582;2024-02-04T01:27:24;99396.84;;;6.22;90.64
48364;BME280;34170;54.364;18.582;2024-02-04T01:29:52;99407.09;;;6.07;91.54
48364;BME280;34170;54.364;18.582;2024-02-04T01:32:20;99373.09;;;6.00;91.94
48364;BME280;34170;54.364;18.582;2024-02-04T01:34:48;99381.97;;;6.20;90.71
48364;BME280;34170;54.364;18.582;2024-02-04T01:37:16;99384.06;;;6.26;90.46
48364;BME280;34170;54.364;18.582;2024-02-04T01:39:43;99392.78;;;6.38;89.90
48364;BME280;34170;54.364;18.582;2024-02-04T01:42:11;99375.63;;;6.30;89.59
48364;BME280;34170;54.364;18.582;2024-02-04T01:44:39;99392.63;;;6.20;90.45
48364;BME280;34170;54.364;18.582;2024-02-04T01:47:06;99371.53;;;6.17;90.42
48364;BME280;34170;54.364;18.582;2024-02-04T01:49:34;99384.31;;;6.13;90.58
48364;BME280;34170;54.364;18.582;2024-02-04T01:52:04;99360.75;;;6.08;89.33
48364;BME280;34170;54.364;18.582;2024-02-04T01:54:33;99373.53;;;6.44;89.01
48364;BME280;34170;54.364;18.582;2024-02-04T01:57:01;99362.69;;;6.45;88.35
48364;BME280;34170;54.364;18.582;2024-02-04T01:59:29;99356.22;;;6.09;89.46
48364;BME280;34170;54.364;18.582;2024-02-04T02:01:59;99366.91;;;6.09;90.27
48364;BME280;34170;54.364;18.582;2024-02-04T02:04:27;99349.50;;;6.15;89.93
48364;BME280;34170;54.364;18.582;2024-02-04T02:06:55;99352.00;;;5.97;91.16
48364;BME280;34170;54.364;18.582;2024-02-04T02:09:23;99332.91;;;6.11;91.17
48364;BME280;34170;54.364;18.582;2024-02-04T02:12:03;99342.25;;;5.86;92.18
48364;BME280;34170;54.364;18.582;2024-02-04T02:14:36;99343.25;;;5.95;92.00
48364;BME280;34170;54.364;18.582;2024-02-04T02:17:12;99326.72;;;6.01;91.37
48364;BME280;34170;54.364;18.582;2024-02-04T02:19:57;99347.66;;;6.15;90.17
48364;BME280;34170;54.364;18.582;2024-02-04T02:22:36;99322.50;;;5.88;90.84
48364;BME280;34170;54.364;18.582;2024-02-04T02:25:07;99340.16;;;5.80;91.92
48364;BME280;34170;54.364;18.582;2024-02-04T02:27:46;99297.53;;;5.99;90.13
48364;BME280;34170;54.364;18.582;2024-02-04T02:30:13;99306.78;;;6.05;90.48
48364;BME280;34170;54.364;18.582;2024-02-04T02:32:42;99328.41;;;6.02;90.09
48364;BME280;34170;54.364;18.582;2024-02-04T02:35:11;99309.84;;;5.90;90.82
48364;BME280;34170;54.364;18.582;2024-02-04T02:41:21;99302.81;;;5.89;91.64
48364;BME280;34170;54.364;18.582;2024-02-04T02:43:18;99303.13;;;6.06;90.20
48364;BME280;34170;54.364;18.582;2024-02-04T02:45:46;99312.06;;;5.95;91.74
48364;BME280;34170;54.364;18.582;2024-02-04T02:48:14;99325.56;;;5.84;92.06
48364;BME280;34170;54.364;18.582;2024-02-04T02:50:42;99318.88;;;5.99;91.39
48364;BME280;34170;54.364;18.582;2024-02-04T02:53:10;99335.66;;;5.80;92.83
48364;BME280;34170;54.364;18.582;2024-02-04T02:55:38;99301.53;;;5.84;92.11
48364;BME280;34170;54.364;18.582;2024-02-04T02:58:06;99323.50;;;6.07;91.28
48364;BME280;34170;54.364;18.582;2024-02-04T03:00:33;99349.09;;;6.19;91.63
48364;BME280;34170;54.364;18.582;2024-02-04T03:03:01;99329.53;;;6.09;91.04
48364;BME280;34170;54.364;18.582;2024-02-04T03:05:29;99349.06;;;6.00;91.48
48364;BME280;34170;54.364;18.582;2024-02-04T03:07:57;99345.28;;;6.12;91.86
48364;BME280;34170;54.364;18.582;2024-02-04T03:10:24;99349.06;;;6.29;90.13
48364;BME280;34170;54.364;18.582;2024-02-04T03:12:52;99354.28;;;6.30;90.81
48364;BME280;34170;54.364;18.582;2024-02-04T03:15:19;99328.69;;;6.18;90.16
48364;BME280;34170;54.364;18.582;2024-02-04T03:17:47;99335.84;;;6.27;90.42
48364;BME280;34170;54.364;18.582;2024-02-04T03:20:15;99298.31;;;5.90;91.70
48364;BME280;34170;54.364;18.582;2024-02-04T03:22:43;99321.63;;;5.88;92.84
48364;BME280;34170;54.364;18.582;2024-02-04T03:25:11;99290.84;;;5.74;92.75
48364;BME280;34170;54.364;18.582;2024-02-04T03:27:40;99306.50;;;6.08;91.83
48364;BME280;34170;54.364;18.582;2024-02-04T03:30:07;99308.56;;;5.85;93.33
48364;BME280;34170;54.364;18.582;2024-02-04T03:32:35;99302.34;;;5.65;94.40
48364;BME280;34170;54.364;18.582;2024-02-04T03:35:03;99290.16;;;5.91;93.56
48364;BME280;34170;54.364;18.582;2024-02-04T03:37:32;99295.06;;;5.77;93.50
48364;BME280;34170;54.364;18.582;2024-02-04T03:40:00;99307.03;;;5.72;94.12
48364;BME280;34170;54.364;18.582;2024-02-04T03:42:28;99302.50;;;5.73;93.37
48364;BME280;34170;54.364;18.582;2024-02-04T03:44:56;99281.31;;;5.62;93.96
48364;BME280;34170;54.364;18.582;2024-02-04T03:47:24;99313.91;;;5.85;94.50
48364;BME280;34170;54.364;18.582;2024-02-04T03:49:52;99319.66;;;5.90;93.08
48364;BME280;34170;54.364;18.582;2024-02-04T03:52:20;99307.34;;;5.99;93.08
48364;BME280;34170;54.364;18.582;2024-02-04T03:54:47;99272.19;;;5.93;92.54
48364;BME280;34170;54.364;18.582;2024-02-04T03:57:15;99304.78;;;5.87;93.88
48364;BME280;34170;54.364;18.582;2024-02-04T03:59:45;99300.59;;;6.04;93.02
48364;BME280;34170;54.364;18.582;2024-02-04T04:02:16;99310.41;;;5.94;92.96
48364;BME280;34170;54.364;18.582;2024-02-04T04:04:43;99288.38;;;6.02;92.25
48364;BME280;34170;54.364;18.582;2024-02-04T04:07:15;99267.72;;;6.04;92.39
48364;BME280;34170;54.364;18.582;2024-02-04T04:09:43;99264.59;;;5.79;92.56
48364;BME280;34170;54.364;18.582;2024-02-04T04:12:11;99269.38;;;5.95;91.55
48364;BME280;34170;54.364;18.582;2024-02-04T04:14:38;99264.31;;;5.82;92.55
48364;BME280;34170;54.364;18.582;2024-02-04T04:17:06;99264.47;;;5.81;92.52
48364;BME280;34170;54.364;18.582;2024-02-04T04:19:33;99251.81;;;5.83;92.40
48364;BME280;34170;54.364;18.582;2024-02-04T04:22:03;99281.91;;;5.85;92.89
48364;BME280;34170;54.364;18.582;2024-02-04T04:24:30;99260.09;;;5.70;93.37
48364;BME280;34170;54.364;18.582;2024-02-04T04:26:58;99284.28;;;5.78;93.09
48364;BME280;34170;54.364;18.582;2024-02-04T04:29:25;99292.13;;;5.89;92.57
48364;BME280;34170;54.364;18.582;2024-02-04T04:31:54;99263.44;;;5.52;94.68
48364;BME280;34170;54.364;18.582;2024-02-04T04:34:21;99264.72;;;5.78;94.02
48364;BME280;34170;54.364;18.582;2024-02-04T04:36:49;99226.97;;;5.53;94.92
48364;BME280;34170;54.364;18.582;2024-02-04T04:39:16;99254.50;;;5.92;93.27
48364;BME280;34170;54.364;18.582;2024-02-04T04:41:44;99255.06;;;5.77;93.65
48364;BME280;34170;54.364;18.582;2024-02-04T04:44:12;99221.22;;;5.77;93.19
48364;BME280;34170;54.364;18.582;2024-02-04T04:46:40;99252.84;;;6.01;93.06
48364;BME280;34170;54.364;18.582;2024-02-04T04:49:07;99239.19;;;5.75;93.75
48364;BME280;34170;54.364;18.582;2024-02-04T04:51:35;99250.13;;;5.91;93.15
48364;BME280;34170;54.364;18.582;2024-02-04T04:54:03;99238.19;;;5.86;93.01
48364;BME280;34170;54.364;18.582;2024-02-04T04:56:38;99265.16;;;5.73;93.28
48364;BME280;34170;54.364;18.582;2024-02-04T04:59:09;99251.13;;;5.90;92.97
48364;BME280;34170;54.364;18.582;2024-02-04T05:01:37;99242.56;;;5.77;93.40
48364;BME280;34170;54.364;18.582;2024-02-04T05:04:04;99250.03;;;6.03;92.50
48364;BME280;34170;54.364;18.582;2024-02-04T05:06:33;99247.47;;;5.72;93.59
48364;BME280;34170;54.364;18.582;2024-02-04T05:09:00;99224.72;;;5.78;93.08
48364;BME280;34170;54.364;18.582;2024-02-04T05:11:28;99224.03;;;5.85;92.38
48364;BME280;34170;54.364;18.582;2024-02-04T05:13:55;99246.34;;;5.84;93.21
48364;BME280;34170;54.364;18.582;2024-02-04T05:16:23;99215.75;;;5.69;92.64
48364;BME280;34170;54.364;18.582;2024-02-04T05:18:51;99178.94;;;5.63;92.40
48364;BME280;34170;54.364;18.582;2024-02-04T05:21:19;99227.81;;;5.73;92.01
48364;BME280;34170;54.364;18.582;2024-02-04T05:23:46;99233.88;;;5.85;91.45
48364;BME280;34170;54.364;18.582;2024-02-04T05:26:14;99207.16;;;5.75;90.77
48364;BME280;34170;54.364;18.582;2024-02-04T05:28:44;99220.50;;;5.75;90.87
48364;BME280;34170;54.364;18.582;2024-02-04T05:31:12;99216.03;;;5.85;90.10
48364;BME280;34170;54.364;18.582;2024-02-04T05:33:39;99249.44;;;5.80;90.24
48364;BME280;34170;54.364;18.582;2024-02-04T05:36:07;99232.56;;;5.60;90.74
48364;BME280;34170;54.364;18.582;2024-02-04T05:38:34;99247.47;;;5.72;90.65
48364;BME280;34170;54.364;18.582;2024-02-04T05:41:02;99246.75;;;5.70;91.62
48364;BME280;34170;54.364;18.582;2024-02-04T05:43:29;99223.88;;;5.77;90.65
48364;BME280;34170;54.364;18.582;2024-02-04T05:45:57;99245.94;;;5.69;91.27
48364;BME280;34170;54.364;18.582;2024-02-04T05:48:24;99236.25;;;5.78;91.50
48364;BME280;34170;54.364;18.582;2024-02-04T05:50:52;99237.78;;;5.71;92.22
48364;BME280;34170;54.364;18.582;2024-02-04T05:53:20;99256.03;;;5.85;92.09
48364;BME280;34170;54.364;18.582;2024-02-04T05:55:48;99247.59;;;5.61;92.12
48364;BME280;34170;54.364;18.582;2024-02-04T05:58:15;99254.50;;;5.92;91.64
48364;BME280;34170;54.364;18.582;2024-02-04T06:00:43;99256.47;;;5.90;92.18
48364;BME280;34170;54.364;18.582;2024-02-04T06:03:10;99254.22;;;5.86;91.30
48364;BME280;34170;54.364;18.582;2024-02-04T06:05:38;99248.56;;;5.60;93.20
48364;BME280;34170;54.364;18.582;2024-02-04T06:08:06;99258.03;;;5.83;93.01
48364;BME280;34170;54.364;18.582;2024-02-04T06:10:34;99232.47;;;5.90;91.90
48364;BME280;34170;54.364;18.582;2024-02-04T06:13:01;99236.97;;;6.00;91.54
48364;BME280;34170;54.364;18.582;2024-02-04T06:15:29;99244.69;;;5.83;92.98
48364;BME280;34170;54.364;18.582;2024-02-04T06:17:56;99253.28;;;6.06;92.89
48364;BME280;34170;54.364;18.582;2024-02-04T06:20:24;99249.47;;;6.09;92.42
48364;BME280;34170;54.364;18.582;2024-02-04T06:22:51;99237.09;;;5.98;92.90
48364;BME280;34170;54.364;18.582;2024-02-04T06:25:19;99219.81;;;5.92;93.07
48364;BME280;34170;54.364;18.582;2024-02-04T06:27:47;99239.63;;;6.19;92.51
48364;BME280;34170;54.364;18.582;2024-02-04T06:30:14;99240.75;;;6.07;94.66
48364;BME280;34170;54.364;18.582;2024-02-04T06:32:43;99232.59;;;5.99;94.98
48364;BME280;34170;54.364;18.582;2024-02-04T06:35:11;99215.72;;;6.08;95.72
48364;BME280;34170;54.364;18.582;2024-02-04T06:37:40;99226.56;;;6.16;96.23
48364;BME280;34170;54.364;18.582;2024-02-04T06:40:10;99224.59;;;6.18;97.40
48364;BME280;34170;54.364;18.582;2024-02-04T06:42:37;99203.38;;;5.78;99.95
48364;BME280;34170;54.364;18.582;2024-02-04T06:45:05;99219.97;;;6.10;100.00
48364;BME280;34170;54.364;18.582;2024-02-04T06:47:33;99211.94;;;5.91;100.00
48364;BME280;34170;54.364;18.582;2024-02-04T06:50:01;99231.91;;;6.06;100.00
48364;BME280;34170;54.364;18.582;2024-02-04T06:52:31;99215.03;;;5.57;100.00
48364;BME280;34170;54.364;18.582;2024-02-04T06:54:59;99228.41;;;5.96;100.00
48364;BME280;34170;54.364;18.582;2024-02-04T06:57:26;99234.81;;;5.93;100.00
48364;BME280;34170;54.364;18.582;2024-02-04T06:59:54;99226.00;;;5.83;100.00
48364;BME280;34170;54.364;18.582;2024-02-04T07:02:21;99205.63;;;5.82;100.00
48364;BME280;34170;54.364;18.582;2024-02-04T07:04:49;99212.22;;;6.07;100.00
48364;BME280;34170;54.364;18.582;2024-02-04T07:07:21;99205.31;;;5.95;100.00
48364;BME280;34170;54.364;18.582;2024-02-04T07:09:48;99206.59;;;6.20;100.00
48364;BME280;34170;54.364;18.582;2024-02-04T07:12:16;99182.31;;;5.84;100.00
48364;BME280;34170;54.364;18.582;2024-02-04T07:14:44;99220.69;;;6.03;100.00
48364;BME280;34170;54.364;18.582;2024-02-04T07:17:11;99218.53;;;5.77;100.00
48364;BME280;34170;54.364;18.582;2024-02-04T07:19:39;99197.19;;;5.58;100.00
48364;BME280;34170;54.364;18.582;2024-02-04T07:22:07;99210.56;;;5.87;100.00
48364;BME280;34170;54.364;18.582;2024-02-04T07:24:34;99193.13;;;5.73;100.00
48364;BME280;34170;54.364;18.582;2024-02-04T07:27:02;99210.81;;;5.74;100.00
48364;BME280;34170;54.364;18.582;2024-02-04T07:29:30;99216.91;;;5.96;100.00
48364;BME280;34170;54.364;18.582;2024-02-04T07:31:57;99204.91;;;5.70;100.00
48364;BME280;34170;54.364;18.582;2024-02-04T07:34:25;99189.47;;;5.74;100.00
48364;BME280;34170;54.364;18.582;2024-02-04T07:36:53;99199.44;;;5.91;100.00
48364;BME280;34170;54.364;18.582;2024-02-04T07:39:21;99194.78;;;5.93;100.00
48364;BME280;34170;54.364;18.582;2024-02-04T07:41:48;99187.94;;;5.71;100.00
48364;BME280;34170;54.364;18.582;2024-02-04T07:44:16;99194.97;;;5.92;100.00
48364;BME280;34170;54.364;18.582;2024-02-04T07:46:43;99196.06;;;5.89;100.00
48364;BME280;34170;54.364;18.582;2024-02-04T07:49:11;99191.00;;;5.86;100.00
48364;BME280;34170;54.364;18.582;2024-02-04T07:51:38;99179.50;;;5.66;100.00
48364;BME280;34170;54.364;18.582;2024-02-04T07:54:07;99191.56;;;5.90;100.00
48364;BME280;34170;54.364;18.582;2024-02-04T07:56:34;99184.13;;;5.74;100.00
48364;BME280;34170;54.364;18.582;2024-02-04T07:59:02;99195.56;;;5.96;100.00
48364;BME280;34170;54.364;18.582;2024-02-04T08:01:31;99185.53;;;6.07;100.00
48364;BME280;34170;54.364;18.582;2024-02-04T08:03:59;99190.47;;;6.12;100.00
48364;BME280;34170;54.364;18.582;2024-02-04T08:06:27;99199.19;;;5.85;100.00
48364;BME280;34170;54.364;18.582;2024-02-04T08:08:55;99198.59;;;6.10;100.00
48364;BME280;34170;54.364;18.582;2024-02-04T08:11:23;99182.59;;;6.01;100.00
48364;BME280;34170;54.364;18.582;2024-02-04T08:13:50;99182.03;;;6.07;100.00
48364;BME280;34170;54.364;18.582;2024-02-04T08:16:18;99158.88;;;5.98;100.00
48364;BME280;34170;54.364;18.582;2024-02-04T08:18:46;99160.22;;;6.11;100.00
48364;BME280;34170;54.364;18.582;2024-02-04T08:21:14;99178.41;;;5.88;100.00
48364;BME280;34170;54.364;18.582;2024-02-04T08:23:41;99182.72;;;5.89;100.00
48364;BME280;34170;54.364;18.582;2024-02-04T08:26:09;99162.25;;;5.80;100.00
48364;BME280;34170;54.364;18.582;2024-02-04T08:28:37;99166.88;;;5.98;100.00
48364;BME280;34170;54.364;18.582;2024-02-04T08:31:04;99158.88;;;5.78;100.00
48364;BME280;34170;54.364;18.582;2024-02-04T08:33:32;99176.13;;;6.13;100.00
48364;BME280;34170;54.364;18.582;2024-02-04T08:36:00;99166.69;;;6.19;100.00
48364;BME280;34170;54.364;18.582;2024-02-04T08:38:27;99164.47;;;5.95;100.00
48364;BME280;34170;54.364;18.582;2024-02-04T08:40:55;99152.69;;;5.97;100.00
48364;BME280;34170;54.364;18.582;2024-02-04T08:43:23;99175.88;;;5.97;100.00
48364;BME280;34170;54.364;18.582;2024-02-04T08:45:50;99184.69;;;5.87;100.00
48364;BME280;34170;54.364;18.582;2024-02-04T08:48:18;99173.31;;;5.95;100.00
48364;BME280;34170;54.364;18.582;2024-02-04T08:50:45;99165.31;;;5.56;100.00
48364;BME280;34170;54.364;18.582;2024-02-04T08:53:13;99190.72;;;5.89;100.00
48364;BME280;34170;54.364;18.582;2024-02-04T08:55:40;99186.41;;;5.69;100.00
48364;BME280;34170;54.364;18.582;2024-02-04T08:58:08;99174.03;;;5.87;100.00
48364;BME280;34170;54.364;18.582;2024-02-04T09:00:36;99182.03;;;5.78;100.00
48364;BME280;34170;54.364;18.582;2024-02-04T09:03:04;99181.47;;;5.74;100.00
48364;BME280;34170;54.364;18.582;2024-02-04T09:05:31;99180.66;;;5.83;100.00
48364;BME280;34170;54.364;18.582;2024-02-04T09:07:59;99162.94;;;5.92;100.00
48364;BME280;34170;54.364;18.582;2024-02-04T09:10:27;99178.09;;;5.91;100.00
48364;BME280;34170;54.364;18.582;2024-02-04T09:12:55;99167.03;;;5.96;100.00
48364;BME280;34170;54.364;18.582;2024-02-04T09:15:22;99167.44;;;5.82;100.00
48364;BME280;34170;54.364;18.582;2024-02-04T09:17:50;99156.22;;;5.98;100.00
48364;BME280;34170;54.364;18.582;2024-02-04T09:20:17;99155.22;;;5.99;100.00
48364;BME280;34170;54.364;18.582;2024-02-04T09:22:45;99154.19;;;6.09;100.00
48364;BME280;34170;54.364;18.582;2024-02-04T09:25:13;99144.84;;;5.96;100.00
48364;BME280;34170;54.364;18.582;2024-02-04T09:27:41;99154.25;;;6.00;100.00
48364;BME280;34170;54.364;18.582;2024-02-04T09:30:09;99132.03;;;6.09;100.00
48364;BME280;34170;54.364;18.582;2024-02-04T09:32:37;99137.78;;;5.95;100.00
48364;BME280;34170;54.364;18.582;2024-02-04T09:35:05;99116.84;;;5.90;100.00
48364;BME280;34170;54.364;18.582;2024-02-04T09:37:33;99125.31;;;5.85;100.00
48364;BME280;34170;54.364;18.582;2024-02-04T09:40:01;99127.16;;;6.32;100.00
48364;BME280;34170;54.364;18.582;2024-02-04T09:42:30;99086.66;;;6.09;100.00
48364;BME280;34170;54.364;18.582;2024-02-04T09:44:58;99134.34;;;6.32;100.00
48364;BME280;34170;54.364;18.582;2024-02-04T09:47:27;99117.56;;;6.02;100.00
48364;BME280;34170;54.364;18.582;2024-02-04T09:49:55;99129.63;;;6.53;100.00
48364;BME280;34170;54.364;18.582;2024-02-04T09:52:33;99134.06;;;6.62;100.00
48364;BME280;34170;54.364;18.582;2024-02-04T09:55:02;99118.22;;;6.79;100.00
48364;BME280;34170;54.364;18.582;2024-02-04T09:57:32;99121.50;;;6.73;100.00
48364;BME280;34170;54.364;18.582;2024-02-04T10:00:03;99120.44;;;6.65;100.00
48364;BME280;34170;54.364;18.582;2024-02-04T10:02:41;99130.88;;;6.49;100.00
48364;BME280;34170;54.364;18.582;2024-02-04T10:05:09;99131.53;;;6.61;100.00
48364;BME280;34170;54.364;18.582;2024-02-04T10:07:38;99114.50;;;6.34;100.00
48364;BME280;34170;54.364;18.582;2024-02-04T10:10:07;99112.03;;;6.23;100.00
48364;BME280;34170;54.364;18.582;2024-02-04T10:12:35;99118.13;;;6.43;100.00
48364;BME280;34170;54.364;18.582;2024-02-04T10:15:05;99095.66;;;6.63;100.00
48364;BME280;34170;54.364;18.582;2024-02-04T10:17:34;99108.44;;;6.70;100.00
48364;BME280;34170;54.364;18.582;2024-02-04T10:20:01;99112.63;;;6.72;100.00
48364;BME280;34170;54.364;18.582;2024-02-04T10:22:30;99105.38;;;6.37;100.00
48364;BME280;34170;54.364;18.582;2024-02-04T10:25:07;99103.88;;;6.24;100.00
48364;BME280;34170;54.364;18.582;2024-02-04T10:27:36;99109.63;;;6.57;100.00
48364;BME280;34170;54.364;18.582;2024-02-04T10:30:05;99111.16;;;6.22;100.00
48364;BME280;34170;54.364;18.582;2024-02-04T10:32:34;99099.00;;;6.47;100.00
48364;BME280;34170;54.364;18.582;2024-02-04T10:35:01;99098.69;;;6.51;100.00
48364;BME280;34170;54.364;18.582;2024-02-04T10:37:29;99085.31;;;6.51;100.00
48364;BME280;34170;54.364;18.582;2024-02-04T10:39:57;99094.69;;;6.37;100.00
48364;BME280;34170;54.364;18.582;2024-02-04T10:42:27;99085.28;;;6.33;100.00
48364;BME280;34170;54.364;18.582;2024-02-04T10:44:55;99101.97;;;5.87;100.00
48364;BME280;34170;54.364;18.582;2024-02-04T10:47:30;99100.22;;;6.25;100.00
48364;BME280;34170;54.364;18.582;2024-02-04T10:50:02;99076.41;;;5.95;100.00
48364;BME280;34170;54.364;18.582;2024-02-04T10:52:36;99059.53;;;6.04;100.00
48364;BME280;34170;54.364;18.582;2024-02-04T10:55:10;99073.22;;;6.28;100.00
48364;BME280;34170;54.364;18.582;2024-02-04T10:57:39;99062.66;;;5.89;100.00
48364;BME280;34170;54.364;18.582;2024-02-04T11:00:08;99040.56;;;6.07;100.00
48364;BME280;34170;54.364;18.582;2024-02-04T11:02:38;99056.78;;;6.33;100.00
48364;BME280;34170;54.364;18.582;2024-02-04T11:05:06;99056.56;;;6.44;100.00
48364;BME280;34170;54.364;18.582;2024-02-04T11:07:35;99050.03;;;6.57;100.00
48364;BME280;34170;54.364;18.582;2024-02-04T11:10:03;99023.72;;;6.34;100.00
48364;BME280;34170;54.364;18.582;2024-02-04T11:12:35;99033.50;;;6.43;100.00
48364;BME280;34170;54.364;18.582;2024-02-04T11:15:06;99027.03;;;6.46;100.00
48364;BME280;34170;54.364;18.582;2024-02-04T11:17:57;99017.31;;;6.73;100.00
48364;BME280;34170;54.364;18.582;2024-02-04T11:20:53;98975.91;;;6.59;100.00
48364;BME280;34170;54.364;18.582;2024-02-04T11:26:04;98999.50;;;6.63;100.00
48364;BME280;34170;54.364;18.582;2024-02-04T11:28:33;98991.69;;;6.34;100.00
48364;BME280;34170;54.364;18.582;2024-02-04T11:31:01;99002.38;;;6.52;100.00
48364;BME280;34170;54.364;18.582;2024-02-04T11:33:29;99001.88;;;6.66;100.00
48364;BME280;34170;54.364;18.582;2024-02-04T11:36:03;98997.59;;;6.74;100.00
48364;BME280;34170;54.364;18.582;2024-02-04T11:38:37;98982.31;;;6.48;100.00
48364;BME280;34170;54.364;18.582;2024-02-04T11:41:06;98989.53;;;6.65;100.00
48364;BME280;34170;54.364;18.582;2024-02-04T11:43:35;98973.44;;;6.29;100.00
48364;BME280;34170;54.364;18.582;2024-02-04T11:46:04;98996.22;;;6.52;100.00
48364;BME280;34170;54.364;18.582;2024-02-04T11:48:34;98975.44;;;6.63;100.00
48364;BME280;34170;54.364;18.582;2024-02-04T11:51:04;98989.03;;;6.52;100.00
48364;BME280;34170;54.364;18.582;2024-02-04T11:53:32;98993.00;;;6.48;100.00
48364;BME280;34170;54.364;18.582;2024-02-04T11:56:00;98966.00;;;6.51;100.00
48364;BME280;34170;54.364;18.582;2024-02-04T11:58:29;98958.13;;;6.49;100.00
48364;BME280;34170;54.364;18.582;2024-02-04T12:00:57;98981.28;;;6.31;100.00
48364;BME280;34170;54.364;18.582;2024-02-04T12:03:31;98965.22;;;6.41;100.00
48364;BME280;34170;54.364;18.582;2024-02-04T12:05:59;98953.19;;;6.37;100.00
48364;BME280;34170;54.364;18.582;2024-02-04T12:08:29;98951.63;;;6.34;100.00
48364;BME280;34170;54.364;18.582;2024-02-04T12:10:57;98954.25;;;6.44;100.00
48364;BME280;34170;54.364;18.582;2024-02-04T12:13:25;98961.47;;;6.34;100.00
48364;BME280;34170;54.364;18.582;2024-02-04T12:15:54;98958.03;;;6.23;100.00
48364;BME280;34170;54.364;18.582;2024-02-04T12:18:22;98949.16;;;6.05;100.00
48364;BME280;34170;54.364;18.582;2024-02-04T12:20:51;98949.63;;;6.18;100.00
48364;BME280;34170;54.364;18.582;2024-02-04T12:23:19;98961.63;;;6.04;100.00
48364;BME280;34170;54.364;18.582;2024-02-04T12:25:54;98946.72;;;6.29;100.00
48364;BME280;34170;54.364;18.582;2024-02-04T12:28:22;98951.47;;;6.36;100.00
48364;BME280;34170;54.364;18.582;2024-02-04T12:30:53;98946.72;;;6.29;100.00
48364;BME280;34170;54.364;18.582;2024-02-04T12:33:26;98952.94;;;6.30;100.00
48364;BME280;34170;54.364;18.582;2024-02-04T12:35:54;98934.97;;;6.22;100.00
48364;BME280;34170;54.364;18.582;2024-02-04T12:38:23;98939.38;;;5.86;100.00
48364;BME280;34170;54.364;18.582;2024-02-04T12:40:51;98927.50;;;6.26;100.00
48364;BME280;34170;54.364;18.582;2024-02-04T12:43:19;98916.31;;;6.40;100.00
48364;BME280;34170;54.364;18.582;2024-02-04T12:45:46;98930.03;;;6.45;100.00
48364;BME280;34170;54.364;18.582;2024-02-04T12:48:15;98917.44;;;6.38;100.00
48364;BME280;34170;54.364;18.582;2024-02-04T12:50:45;98920.22;;;6.46;100.00
48364;BME280;34170;54.364;18.582;2024-02-04T12:53:13;98905.00;;;6.28;100.00
48364;BME280;34170;54.364;18.582;2024-02-04T12:55:42;98909.59;;;6.36;100.00
48364;BME280;34170;54.364;18.582;2024-02-04T12:58:12;98914.69;;;6.29;100.00
48364;BME280;34170;54.364;18.582;2024-02-04T13:00:42;98905.47;;;6.24;100.00
48364;BME280;34170;54.364;18.582;2024-02-04T13:03:10;98886.56;;;6.35;100.00
48364;BME280;34170;54.364;18.582;2024-02-04T13:05:38;98884.34;;;6.30;100.00
48364;BME280;34170;54.364;18.582;2024-02-04T13:08:06;98892.50;;;6.29;100.00